createdAt,value
2022-12-31T00:00:36.569Z,11.10
2022-12-31T00:03:04.903Z,11.00
2022-12-31T00:05:34.257Z,11.10
2022-12-31T00:08:02.658Z,11.10
2022-12-31T00:10:34.296Z,11.10
2022-12-31T00:13:02.303Z,11.10
2022-12-31T00:15:30.492Z,11.10
2022-12-31T00:17:58.528Z,11.10
2022-12-31T00:20:26.613Z,11.10
2022-12-31T00:22:54.687Z,11.10
2022-12-31T00:25:22.791Z,11.10
2022-12-31T00:27:52.329Z,11.10
2022-12-31T00:30:20.618Z,11.10
2022-12-31T00:32:48.644Z,11.10
2022-12-31T00:35:16.790Z,11.10
2022-12-31T00:37:44.824Z,11.20
2022-12-31T00:40:13.700Z,11.20
2022-12-31T00:42:41.696Z,11.20
2022-12-31T00:45:11.973Z,11.20
2022-12-31T00:47:40.037Z,11.20
2022-12-31T00:50:08.703Z,11.20
2022-12-31T00:52:36.793Z,11.20
2022-12-31T00:55:05.290Z,11.20
2022-12-31T00:57:33.426Z,11.20
2022-12-31T01:00:01.485Z,11.20
2022-12-31T01:02:31.291Z,11.30
2022-12-31T01:04:59.477Z,11.30
2022-12-31T01:07:27.544Z,11.30
2022-12-31T01:09:55.609Z,11.30
2022-12-31T01:12:25.347Z,11.30
2022-12-31T01:14:53.389Z,11.40
2022-12-31T01:17:21.484Z,11.30
2022-12-31T01:19:50.985Z,11.40
2022-12-31T01:22:19.081Z,11.30
2022-12-31T01:24:47.118Z,11.40
2022-12-31T01:27:15.240Z,11.40
2022-12-31T01:29:43.251Z,11.40
2022-12-31T01:32:11.301Z,11.40
2022-12-31T01:34:39.338Z,11.40
2022-12-31T01:37:08.763Z,11.40
2022-12-31T01:39:36.840Z,11.40
2022-12-31T01:42:05.475Z,11.40
2022-12-31T01:45:00.727Z,11.50
2022-12-31T01:47:37.064Z,11.50
2022-12-31T01:50:11.235Z,11.50
2022-12-31T01:52:43.443Z,11.50
2022-12-31T01:55:18.726Z,11.50
2022-12-31T01:57:49.629Z,11.50
2022-12-31T02:00:18.487Z,11.60
2022-12-31T02:02:47.110Z,11.50
2022-12-31T02:05:24.434Z,11.60
2022-12-31T02:07:55.384Z,11.60
2022-12-31T02:10:23.431Z,11.60
2022-12-31T02:12:52.880Z,11.60
2022-12-31T02:15:27.096Z,11.60
2022-12-31T02:18:04.480Z,11.60
2022-12-31T02:21:05.976Z,11.60
2022-12-31T02:24:04.902Z,11.60
2022-12-31T02:26:50.449Z,11.60
2022-12-31T02:30:00.107Z,11.60
2022-12-31T02:32:38.827Z,11.60
2022-12-31T02:35:14.095Z,11.70
2022-12-31T02:37:46.801Z,11.70
2022-12-31T02:40:18.859Z,11.70
2022-12-31T02:42:53.322Z,11.70
2022-12-31T02:45:29.048Z,11.70
2022-12-31T02:48:23.634Z,11.70
2022-12-31T02:51:01.264Z,11.70
2022-12-31T02:53:41.317Z,11.80
2022-12-31T02:56:18.036Z,11.80
2022-12-31T02:59:09.606Z,11.80
2022-12-31T03:01:59.631Z,11.90
2022-12-31T03:04:34.177Z,11.90
2022-12-31T03:07:04.350Z,11.80
2022-12-31T03:09:32.610Z,11.90
2022-12-31T03:12:18.976Z,11.80
2022-12-31T03:14:47.043Z,11.90
2022-12-31T03:17:15.118Z,11.90
2022-12-31T03:20:01.925Z,11.80
2022-12-31T03:22:30.475Z,11.90
2022-12-31T03:25:19.040Z,11.90
2022-12-31T03:27:48.157Z,11.80
2022-12-31T03:30:18.490Z,11.80
2022-12-31T03:32:47.717Z,11.80
2022-12-31T03:35:20.356Z,11.90
2022-12-31T03:37:49.908Z,11.90
2022-12-31T03:40:19.791Z,11.80
2022-12-31T03:42:48.023Z,11.80
2022-12-31T03:45:16.379Z,11.80
2022-12-31T03:47:45.004Z,11.80
2022-12-31T03:50:14.946Z,11.80
2022-12-31T03:52:44.709Z,11.80
2022-12-31T03:55:13.481Z,11.80
2022-12-31T03:57:42.055Z,11.80
2022-12-31T04:00:13.357Z,11.80
2022-12-31T04:02:42.319Z,11.80
2022-12-31T04:05:11.181Z,11.80
2022-12-31T04:07:39.723Z,11.80
2022-12-31T04:10:11.536Z,11.80
2022-12-31T04:12:40.474Z,11.80
2022-12-31T04:15:10.397Z,11.80
2022-12-31T04:17:38.717Z,11.80
2022-12-31T04:20:08.064Z,11.80
2022-12-31T04:22:36.143Z,11.80
2022-12-31T04:25:04.816Z,11.80
2022-12-31T04:27:34.204Z,11.80
2022-12-31T04:30:02.249Z,11.70
2022-12-31T04:32:30.290Z,11.80
2022-12-31T04:34:58.359Z,11.80
2022-12-31T04:37:26.453Z,11.80
2022-12-31T04:39:55.432Z,11.80
2022-12-31T04:42:25.988Z,11.80
2022-12-31T04:44:55.389Z,11.80
2022-12-31T04:47:23.947Z,11.80
2022-12-31T04:49:52.222Z,11.80
2022-12-31T04:52:20.241Z,11.80
2022-12-31T04:54:48.327Z,11.90
2022-12-31T04:57:16.442Z,11.90
2022-12-31T04:59:44.572Z,11.80
2022-12-31T05:02:14.094Z,11.90
2022-12-31T05:04:42.212Z,11.90
2022-12-31T05:07:10.240Z,12.00
2022-12-31T05:09:39.417Z,12.00
2022-12-31T05:12:07.868Z,12.00
2022-12-31T05:14:36.782Z,12.10
2022-12-31T05:17:04.880Z,12.00
2022-12-31T05:19:34.343Z,12.00
2022-12-31T05:22:22.680Z,12.10
2022-12-31T05:24:52.636Z,12.10
2022-12-31T05:27:20.873Z,12.10
2022-12-31T05:29:49.197Z,12.10
2022-12-31T05:32:17.378Z,12.00
2022-12-31T05:34:46.962Z,12.10
2022-12-31T05:37:16.654Z,12.10
2022-12-31T05:39:44.887Z,12.10
2022-12-31T05:42:13.174Z,12.10
2022-12-31T05:44:42.010Z,12.10
2022-12-31T05:47:10.631Z,12.10
2022-12-31T05:49:38.864Z,12.10
2022-12-31T05:52:08.610Z,12.20
2022-12-31T05:54:36.839Z,12.10
2022-12-31T05:57:07.585Z,12.10
2022-12-31T05:59:36.973Z,12.20
2022-12-31T06:02:05.590Z,12.20
2022-12-31T06:04:33.845Z,12.20
2022-12-31T06:07:02.042Z,12.30
2022-12-31T06:09:31.462Z,12.30
2022-12-31T06:11:59.517Z,12.30
2022-12-31T06:14:27.562Z,12.30
2022-12-31T06:16:55.622Z,12.30
2022-12-31T06:19:23.710Z,12.30
2022-12-31T06:21:51.824Z,12.40
2022-12-31T06:24:20.008Z,12.30
2022-12-31T06:26:49.492Z,12.30
2022-12-31T06:29:21.323Z,12.40
2022-12-31T06:31:49.845Z,12.40
2022-12-31T06:34:18.544Z,12.40
2022-12-31T06:36:46.626Z,12.50
2022-12-31T06:39:14.670Z,12.40
2022-12-31T06:41:42.762Z,12.40
2022-12-31T06:44:12.269Z,12.50
2022-12-31T06:46:40.373Z,12.50
2022-12-31T06:49:08.486Z,12.50
2022-12-31T06:51:36.601Z,12.60
2022-12-31T06:54:04.812Z,12.60
2022-12-31T06:56:35.003Z,12.60
2022-12-31T06:59:04.328Z,12.60
2022-12-31T07:01:50.832Z,12.70
2022-12-31T07:04:44.850Z,12.70
2022-12-31T07:07:22.210Z,12.70
2022-12-31T07:09:58.516Z,12.80
2022-12-31T07:12:37.500Z,12.80
2022-12-31T07:15:07.882Z,12.80
2022-12-31T07:17:45.889Z,12.80
2022-12-31T07:20:16.782Z,12.90
2022-12-31T07:22:45.637Z,12.90
2022-12-31T07:25:16.149Z,12.90
2022-12-31T07:27:55.990Z,13.00
2022-12-31T07:30:31.256Z,13.00
2022-12-31T07:33:21.101Z,13.00
2022-12-31T07:35:56.706Z,13.10
2022-12-31T07:38:32.231Z,13.10
2022-12-31T07:41:09.922Z,13.10
2022-12-31T07:43:50.767Z,13.10
2022-12-31T07:46:27.304Z,13.10
2022-12-31T07:48:57.586Z,13.10
2022-12-31T07:51:26.292Z,13.10
2022-12-31T07:53:54.432Z,13.10
2022-12-31T07:56:22.513Z,13.10
2022-12-31T07:59:03.680Z,13.10
2022-12-31T08:01:37.173Z,13.10
2022-12-31T08:04:11.210Z,13.10
2022-12-31T08:06:47.377Z,13.10
2022-12-31T08:09:38.415Z,13.10
2022-12-31T08:12:08.882Z,13.10
2022-12-31T08:14:44.196Z,13.10
2022-12-31T08:17:14.651Z,13.10
2022-12-31T08:19:45.782Z,13.10
2022-12-31T08:22:32.076Z,13.10
2022-12-31T08:25:14.063Z,13.10
2022-12-31T08:27:49.731Z,13.10
2022-12-31T08:30:20.351Z,13.10
2022-12-31T08:32:56.400Z,13.10
2022-12-31T08:35:37.281Z,13.10
2022-12-31T08:38:17.624Z,13.10
2022-12-31T08:40:55.045Z,13.10
2022-12-31T08:43:34.535Z,13.10
2022-12-31T08:46:04.107Z,13.10
2022-12-31T08:48:38.728Z,13.10
2022-12-31T08:51:11.110Z,13.10
2022-12-31T08:53:39.833Z,13.10
2022-12-31T08:56:14.233Z,13.20
2022-12-31T08:58:48.373Z,13.20
2022-12-31T09:01:22.125Z,13.20
2022-12-31T09:04:12.517Z,13.20
2022-12-31T09:06:49.660Z,13.20
2022-12-31T09:09:24.832Z,13.20
2022-12-31T09:12:01.480Z,13.30
2022-12-31T09:14:44.360Z,13.30
2022-12-31T09:17:39.472Z,13.30
2022-12-31T09:20:15.068Z,13.30
2022-12-31T09:22:44.824Z,13.30
2022-12-31T09:25:17.090Z,13.30
2022-12-31T09:27:50.346Z,13.30
2022-12-31T09:30:19.707Z,13.30
2022-12-31T09:33:00.345Z,13.40
2022-12-31T09:35:37.919Z,13.40
2022-12-31T09:38:17.629Z,13.40
2022-12-31T09:40:59.772Z,13.40
2022-12-31T09:44:01.436Z,13.40
2022-12-31T09:47:14.062Z,13.60
2022-12-31T09:50:23.887Z,13.70
2022-12-31T09:53:30.814Z,14.00
2022-12-31T09:56:04.200Z,14.20
2022-12-31T09:58:41.772Z,14.20
2022-12-31T10:01:22.640Z,14.20
2022-12-31T10:04:07.737Z,14.20
2022-12-31T10:06:45.334Z,14.30
2022-12-31T10:10:00.948Z,14.30
2022-12-31T10:12:58.214Z,14.10
2022-12-31T10:16:02.043Z,14.00
2022-12-31T10:18:40.616Z,13.90
2022-12-31T10:21:25.923Z,13.80
2022-12-31T10:24:26.419Z,13.80
2022-12-31T10:27:09.490Z,13.90
2022-12-31T10:29:47.009Z,13.80
2022-12-31T10:32:24.919Z,13.90
2022-12-31T10:34:59.838Z,13.90
2022-12-31T10:37:32.724Z,13.90
2022-12-31T10:40:16.667Z,14.00
2022-12-31T10:43:20.171Z,13.90
2022-12-31T10:46:23.065Z,14.10
2022-12-31T10:49:38.123Z,14.40
2022-12-31T10:52:29.921Z,14.80
2022-12-31T10:55:50.352Z,15.00
2022-12-31T10:58:52.406Z,15.00
2022-12-31T11:01:29.368Z,15.00
2022-12-31T11:04:32.164Z,14.90
2022-12-31T11:07:33.599Z,14.80
2022-12-31T11:10:44.806Z,14.80
2022-12-31T11:13:41.469Z,15.00
2022-12-31T11:16:37.537Z,15.00
2022-12-31T11:19:18.458Z,14.90
2022-12-31T11:22:13.890Z,15.00
2022-12-31T11:24:58.184Z,15.00
2022-12-31T11:27:44.828Z,15.00
2022-12-31T11:30:26.911Z,15.20
2022-12-31T11:33:10.305Z,15.10
2022-12-31T11:35:56.917Z,15.10
2022-12-31T11:38:29.953Z,15.10
2022-12-31T11:41:03.715Z,15.10
2022-12-31T11:43:40.876Z,15.30
2022-12-31T11:46:26.988Z,15.30
2022-12-31T11:49:17.199Z,15.20
2022-12-31T11:52:02.158Z,15.30
2022-12-31T11:54:43.682Z,15.40
2022-12-31T11:57:19.585Z,15.50
2022-12-31T11:59:48.246Z,15.70
2022-12-31T12:02:27.624Z,15.90
2022-12-31T12:04:58.003Z,16.10
2022-12-31T12:07:27.148Z,16.10
2022-12-31T12:09:57.452Z,16.20
2022-12-31T12:12:25.597Z,16.00
2022-12-31T12:14:55.094Z,16.00
2022-12-31T12:17:32.203Z,16.30
2022-12-31T12:20:03.630Z,16.20
2022-12-31T12:22:32.849Z,15.80
2022-12-31T12:25:07.098Z,15.70
2022-12-31T12:27:37.228Z,15.50
2022-12-31T12:30:12.648Z,15.60
2022-12-31T12:32:53.282Z,15.80
2022-12-31T12:35:26.467Z,15.60
2022-12-31T12:38:02.522Z,15.50
2022-12-31T12:40:34.181Z,15.80
2022-12-31T12:43:03.469Z,16.10
2022-12-31T12:45:45.203Z,16.00
2022-12-31T12:48:26.540Z,15.90
2022-12-31T12:50:54.658Z,15.90
2022-12-31T12:53:40.124Z,16.10
2022-12-31T12:56:22.705Z,16.20
2022-12-31T12:59:03.706Z,15.80
2022-12-31T13:01:47.130Z,15.90
2022-12-31T13:04:40.867Z,16.10
2022-12-31T13:07:24.468Z,16.20
2022-12-31T13:10:16.687Z,16.40
2022-12-31T13:13:22.897Z,16.40
2022-12-31T13:15:43.418Z,16.50
2022-12-31T13:18:23.868Z,16.50
2022-12-31T13:21:00.354Z,16.40
2022-12-31T13:23:39.599Z,16.40
2022-12-31T13:26:13.242Z,16.30
2022-12-31T13:28:43.008Z,16.50
2022-12-31T13:31:16.317Z,16.40
2022-12-31T13:33:48.303Z,16.60
2022-12-31T13:36:20.335Z,16.90
2022-12-31T13:38:51.849Z,17.00
2022-12-31T13:41:25.349Z,16.90
2022-12-31T13:43:59.647Z,16.40
2022-12-31T13:46:38.549Z,15.90
2022-12-31T13:49:14.551Z,15.70
2022-12-31T13:51:47.026Z,15.40
2022-12-31T13:54:32.166Z,15.10
2022-12-31T13:57:06.536Z,15.00
2022-12-31T13:59:38.714Z,14.90
2022-12-31T14:02:24.074Z,14.80
2022-12-31T14:04:58.620Z,14.90
2022-12-31T14:07:43.487Z,14.80
2022-12-31T14:10:14.704Z,14.90
2022-12-31T14:12:52.866Z,14.90
2022-12-31T14:15:27.235Z,14.80
2022-12-31T14:18:03.871Z,14.80
2022-12-31T14:20:43.878Z,14.80
2022-12-31T14:23:21.091Z,14.80
2022-12-31T14:25:53.699Z,14.70
2022-12-31T14:28:26.679Z,14.70
2022-12-31T14:30:58.969Z,14.70
2022-12-31T14:33:38.849Z,14.70
2022-12-31T14:36:18.725Z,14.70
2022-12-31T14:39:22.591Z,14.60
2022-12-31T14:42:03.708Z,14.50
2022-12-31T14:44:44.862Z,14.40
2022-12-31T14:47:25.190Z,14.40
2022-12-31T14:50:03.201Z,14.40
2022-12-31T14:52:33.488Z,14.40
2022-12-31T14:55:20.719Z,14.40
2022-12-31T15:00:40.393Z,14.30
2022-12-31T15:03:25.104Z,14.30
2022-12-31T15:05:56.177Z,14.20
2022-12-31T15:08:43.379Z,14.30
2022-12-31T15:11:27.972Z,14.30
2022-12-31T15:14:26.335Z,14.20
2022-12-31T15:17:02.830Z,14.20
2022-12-31T15:20:01.008Z,14.10
2022-12-31T15:22:39.221Z,14.10
2022-12-31T15:25:23.295Z,14.10
2022-12-31T15:27:53.648Z,14.10
2022-12-31T15:30:41.330Z,14.00
2022-12-31T15:33:19.094Z,14.00
2022-12-31T15:35:54.671Z,14.00
2022-12-31T15:38:35.258Z,13.90
2022-12-31T15:41:16.601Z,13.90
2022-12-31T15:43:51.663Z,13.90
2022-12-31T15:46:22.957Z,13.80
2022-12-31T15:49:01.958Z,13.80
2022-12-31T15:51:39.623Z,13.80
2022-12-31T15:54:17.461Z,13.70
2022-12-31T15:56:48.617Z,13.70
2022-12-31T15:59:19.709Z,13.80
2022-12-31T16:01:48.707Z,13.90
2022-12-31T16:04:19.716Z,13.90
2022-12-31T16:06:51.179Z,13.90
2022-12-31T16:09:25.431Z,14.00
2022-12-31T16:11:54.845Z,13.90
2022-12-31T16:14:27.565Z,13.80
2022-12-31T16:16:58.597Z,13.70
2022-12-31T16:19:32.703Z,13.70
2022-12-31T16:22:07.787Z,13.70
2022-12-31T16:24:48.875Z,13.70
2022-12-31T16:27:27.194Z,13.60
2022-12-31T16:30:02.038Z,13.60
2022-12-31T16:32:36.734Z,13.50
2022-12-31T16:35:12.042Z,13.60
2022-12-31T16:37:45.696Z,13.60
2022-12-31T16:40:21.653Z,13.60
2022-12-31T16:42:51.545Z,13.60
2022-12-31T16:45:31.267Z,13.50
2022-12-31T16:48:02.226Z,13.50
2022-12-31T16:50:31.006Z,13.50
2022-12-31T16:53:04.685Z,13.50
2022-12-31T16:55:34.388Z,13.60
2022-12-31T16:58:07.972Z,13.60
2022-12-31T17:00:38.407Z,13.50
2022-12-31T17:03:09.622Z,13.50
2022-12-31T17:05:56.232Z,13.60
2022-12-31T17:08:26.799Z,13.50
2022-12-31T17:10:56.494Z,13.60
2022-12-31T17:13:30.107Z,13.50
2022-12-31T17:16:01.493Z,13.50
2022-12-31T17:18:36.789Z,13.50
2022-12-31T17:21:09.651Z,13.50
2022-12-31T17:23:39.856Z,13.60
2022-12-31T17:26:12.006Z,13.60
2022-12-31T17:28:45.771Z,13.60
2022-12-31T17:31:30.830Z,13.60
2022-12-31T17:34:19.260Z,13.60
2022-12-31T17:37:16.076Z,13.50
2022-12-31T17:39:50.845Z,13.50
2022-12-31T17:42:32.339Z,13.50
2022-12-31T17:45:02.933Z,13.50
2022-12-31T17:47:41.967Z,13.50
2022-12-31T17:50:20.567Z,13.50
2022-12-31T17:52:49.453Z,13.50
2022-12-31T17:55:17.896Z,13.50
2022-12-31T17:57:51.796Z,13.50
2022-12-31T18:00:22.472Z,13.50
2022-12-31T18:02:52.271Z,13.50
2022-12-31T18:05:22.749Z,13.40
2022-12-31T18:07:51.787Z,13.40
2022-12-31T18:10:22.093Z,13.50
2022-12-31T18:12:50.877Z,13.50
2022-12-31T18:15:20.713Z,13.50
2022-12-31T18:17:49.560Z,13.50
2022-12-31T18:20:19.514Z,13.40
2022-12-31T18:22:47.912Z,13.50
2022-12-31T18:25:20.283Z,13.50
2022-12-31T18:27:49.412Z,13.40
2022-12-31T18:30:18.115Z,13.40
2022-12-31T18:32:46.962Z,13.40
2022-12-31T18:35:40.626Z,13.40
2022-12-31T18:38:11.625Z,13.40
2022-12-31T18:40:42.860Z,13.30
2022-12-31T18:43:16.151Z,13.20
2022-12-31T18:45:44.610Z,13.20
2022-12-31T18:48:13.336Z,13.20
2022-12-31T18:50:41.716Z,13.20
2022-12-31T18:53:16.488Z,13.20
2022-12-31T18:55:47.988Z,13.20
2022-12-31T18:58:16.407Z,13.20
2022-12-31T19:00:45.021Z,13.20
2022-12-31T19:03:16.619Z,13.20
2022-12-31T19:05:45.686Z,13.10
2022-12-31T19:08:15.148Z,13.10
2022-12-31T19:10:43.291Z,13.10
2022-12-31T19:13:13.404Z,13.10
2022-12-31T19:15:44.868Z,13.10
2022-12-31T19:18:13.015Z,13.10
2022-12-31T19:20:41.689Z,13.10
2022-12-31T19:23:18.104Z,13.00
2022-12-31T19:25:47.742Z,13.10
2022-12-31T19:28:19.705Z,13.10
2022-12-31T19:30:48.168Z,13.10
2022-12-31T19:33:17.102Z,13.10
2022-12-31T19:35:45.812Z,13.20
2022-12-31T19:38:20.891Z,13.20
2022-12-31T19:40:50.132Z,13.20
2022-12-31T19:43:20.122Z,13.10
2022-12-31T19:45:49.017Z,13.10
2022-12-31T19:48:19.195Z,13.10
2022-12-31T19:50:49.563Z,13.10
2022-12-31T19:53:21.550Z,13.00
2022-12-31T19:55:50.455Z,13.00
2022-12-31T19:58:20.302Z,13.00
2022-12-31T20:00:55.869Z,13.00
2022-12-31T20:03:26.537Z,13.00
2022-12-31T20:06:03.784Z,12.90
2022-12-31T20:08:33.647Z,12.90
2022-12-31T20:11:08.947Z,12.90
2022-12-31T20:13:37.485Z,12.90
2022-12-31T20:16:08.113Z,12.80
2022-12-31T20:18:38.185Z,12.90
2022-12-31T20:21:24.314Z,12.90
2022-12-31T20:24:21.293Z,12.90
2022-12-31T20:36:17.250Z,12.90
2022-12-31T20:39:00.885Z,12.90
2022-12-31T20:42:00.245Z,12.90
2022-12-31T20:44:43.543Z,12.90
2022-12-31T20:59:02.099Z,12.80
2022-12-31T21:04:33.101Z,12.80
2022-12-31T21:07:03.711Z,12.80
2022-12-31T21:09:43.069Z,12.90
2022-12-31T21:12:26.659Z,12.90
2022-12-31T21:14:54.698Z,12.90
2022-12-31T21:20:51.714Z,12.90
2022-12-31T21:26:21.089Z,12.80
2022-12-31T21:28:51.085Z,12.80
2022-12-31T21:31:19.350Z,12.70
2022-12-31T21:34:06.539Z,12.70
2022-12-31T21:36:34.668Z,12.70
2022-12-31T21:39:04.131Z,12.70
2022-12-31T21:41:49.651Z,12.70
2022-12-31T21:44:18.958Z,12.70
2022-12-31T21:47:15.690Z,12.70
2022-12-31T21:49:34.967Z,12.70
2022-12-31T21:52:20.257Z,12.70
2022-12-31T21:55:06.803Z,12.70
2022-12-31T21:57:59.136Z,12.60
2022-12-31T22:00:51.958Z,12.60
2022-12-31T22:03:27.617Z,12.60
2022-12-31T22:05:58.771Z,12.60
2022-12-31T22:08:28.071Z,12.50
2022-12-31T22:10:57.627Z,12.50
2022-12-31T22:13:25.685Z,12.50
2022-12-31T22:16:01.769Z,12.50
2022-12-31T22:18:34.462Z,12.40
2022-12-31T22:21:04.295Z,12.40
2022-12-31T22:23:33.745Z,12.30
2022-12-31T22:26:04.433Z,12.40
2022-12-31T22:28:40.397Z,12.40
2022-12-31T22:31:09.114Z,12.40
2022-12-31T22:33:37.211Z,12.30
2022-12-31T22:36:09.587Z,12.30
2022-12-31T22:38:39.372Z,12.20
2022-12-31T22:41:10.385Z,12.20
2022-12-31T22:43:40.677Z,12.20
2022-12-31T22:46:13.667Z,12.30
2022-12-31T22:48:42.728Z,12.20
2022-12-31T22:51:11.799Z,12.20
2022-12-31T22:53:41.333Z,12.20
2022-12-31T22:56:12.654Z,12.20
2022-12-31T22:58:41.242Z,12.10
2022-12-31T23:01:15.621Z,12.10
2022-12-31T23:03:43.792Z,12.00
2022-12-31T23:06:12.336Z,12.20
2022-12-31T23:08:40.403Z,12.40
2022-12-31T23:11:09.706Z,12.40
2022-12-31T23:13:57.177Z,12.40
2022-12-31T23:16:44.185Z,12.30
2022-12-31T23:19:30.591Z,12.40
2022-12-31T23:22:16.406Z,12.30
2022-12-31T23:24:44.899Z,12.20
2022-12-31T23:27:14.465Z,12.20
2022-12-31T23:29:47.200Z,12.20
2022-12-31T23:32:16.710Z,12.10
2022-12-31T23:34:45.669Z,12.10
2022-12-31T23:37:14.403Z,12.10
2022-12-31T23:39:42.998Z,12.10
2022-12-31T23:42:11.431Z,12.00
2022-12-31T23:44:40.843Z,12.10
2022-12-31T23:47:08.989Z,12.00
2022-12-31T23:49:37.352Z,12.00
2022-12-31T23:52:05.472Z,12.00
2022-12-31T23:54:35.107Z,11.90
2022-12-31T23:57:03.214Z,11.90
2022-12-31T23:59:31.286Z,11.90
